Annette Island, AK

5:45 AM AKDT on September 30, 2016 (GMT -0800)
Annette Island | | Change Station

Elev 112 ft 55.04 °N, 131.57 °W | Updated 52 minutes ago

Mostly Cloudy
Mostly Cloudy
44 °F
Feels Like 44 °F
N
0
Wind Variable Wind from North

Today
High -- | Low -- °F
--% Chance of Precip.
Yesterday
High -- | Low -- °F
Precip. -- in
Pressure 30.04 in
Visibility 10.0 miles
Clouds Scattered Clouds 15000 ft
Mostly Cloudy 20000 ft
Dew Point 41 °F
Humidity 89%
Rainfall 0.00 in
Snow Depth Not available.
6:48 AM 6:22 PM
Waning Crescent, 0% visible
METAR PANT 301253Z 00000KT 10SM SCT150 BKN200 07/05 A3004 RMK AO2 SLP172 T00670050
Pressure 30.04 in
Visibility 10.0 miles
Clouds Scattered Clouds 15000 ft
Mostly Cloudy 20000 ft
Dew Point 41 °F
Humidity 89%
Rainfall 0.00 in
Snow Depth Not available.
6:48 AM 6:22 PM
Waning Crescent, 0% visible
METAR PANT 301253Z 00000KT 10SM SCT150 BKN200 07/05 A3004 RMK AO2 SLP172 T00670050

10-Day Weather Forecast

Almanac

Astronomy

Sep. 30, 2016 Rise Set
Actual Time
Civil Twilight
Nautical Twilight
Astronomical Twilight
Moon
Length of Visible Light
Length of Day
Tomorrow will be .
, % of the Moon is Illuminated

Today's Extremes

State Highs State Lows

Community

WunderPhotos

Upload Photos

1,942,711 photos uploaded!

WunderBlog® & News

Nearby

Air Quality

  Air Quality AQ Index Pollutant
Not available.

Snow Depth

Station Depth Elevation

Earthquake Activity

City Distance Mag. Time & Date
Minimum magnitude displayed is 2.5.

Coastal Water Temperatures

Place Temperature

Stations

Nearby Weather Stations

Station Location Temp. Windchill Dew Point Humidity Wind Precip. Elev Updated Type
                   

Watches & Warnings

There are currently no watches in effect.